Time;durP1;ratioP1;P1;durP2;ratioP2;P2;SDS_P1;SDS_P2;PMS_P1;PMS_P2;Temp;Humidity;BMP_temperature;BMP_pressure;BME280_temperature;BME280_humidity;BME280_pressure;Samples;Min_cycle;Max_cycle;Signal;HPM_P1;HPM_P2
2023/10/14 00:02:21;;;;;;;12.30;2.00;;;;;;;16.64;78.53;99453.90;110513;1274;22584;-80
2023/10/14 00:04:53;;;;;;;11.50;2.10;;;;;;;16.60;78.16;99445.73;110526;1274;23139;-80
2023/10/14 00:07:26;;;;;;;9.90;1.70;;;;;;;16.58;77.70;99442.39;110498;1272;23448;-78
2023/10/14 00:10:03;;;;;;;10.30;1.70;;;;;;;16.58;77.68;99436.89;110519;1263;22397;-78
2023/10/14 00:12:35;;;;;;;14.40;2.10;;;;;;;16.62;77.08;99428.63;110477;1262;22310;-78
2023/10/14 00:15:08;;;;;;;12.80;1.90;;;;;;;16.69;76.98;99425.98;110508;1269;22372;-78
2023/10/14 00:17:41;;;;;;;23.00;2.50;;;;;;;16.76;76.79;99421.55;110484;1274;22680;-78
2023/10/14 00:20:14;;;;;;;11.20;2.00;;;;;;;16.81;76.56;99420.27;110440;1266;22291;-78
2023/10/14 00:22:45;;;;;;;12.20;2.30;;;;;;;16.84;76.42;99415.35;110481;1271;22387;-78
2023/10/14 00:25:21;;;;;;;10.70;1.60;;;;;;;16.85;76.21;99411.75;110534;1269;23202;-78
2023/10/14 00:27:52;;;;;;;9.30;1.70;;;;;;;16.86;76.12;99407.07;110461;1272;22312;-78
2023/10/14 00:30:26;;;;;;;15.70;2.60;;;;;;;16.85;76.13;99405.48;110481;1271;22187;-78
2023/10/14 00:32:57;;;;;;;11.60;2.20;;;;;;;16.84;76.04;99396.02;110460;1266;22184;-78
2023/10/14 00:35:28;;;;;;;15.10;2.20;;;;;;;16.83;76.36;99390.98;110464;1274;22302;-78
2023/10/14 00:38:08;;;;;;;20.80;2.60;;;;;;;16.82;76.51;99388.73;110474;1274;23100;-78
2023/10/14 00:40:39;;;;;;;14.20;2.30;;;;;;;16.80;76.45;99382.11;110476;1269;22389;-77
2023/10/14 00:43:11;;;;;;;14.80;1.90;;;;;;;16.77;76.08;99378.94;110458;1272;22230;-78
2023/10/14 00:45:44;;;;;;;16.90;2.90;;;;;;;16.73;76.57;99374.41;110466;1272;22764;-78
2023/10/14 00:48:19;;;;;;;13.80;3.20;;;;;;;16.68;76.55;99369.59;110478;1274;23067;-78
2023/10/14 00:50:50;;;;;;;13.30;2.50;;;;;;;16.63;76.71;99367.95;110463;1267;22273;-78
2023/10/14 00:53:21;;;;;;;14.60;2.90;;;;;;;16.58;76.66;99373.52;110498;1274;22161;-78
2023/10/14 00:55:54;;;;;;;12.80;2.90;;;;;;;16.55;76.83;99375.13;110451;1274;22400;-78
2023/10/14 00:58:28;;;;;;;14.20;3.40;;;;;;;16.50;77.01;99375.98;110528;1266;22271;-78
2023/10/14 01:00:59;;;;;;;12.20;2.70;;;;;;;16.47;76.96;99365.61;110462;1274;22283;-78
2023/10/14 01:03:31;;;;;;;15.50;2.80;;;;;;;16.43;77.11;99365.73;110479;1262;22210;-78
2023/10/14 01:06:16;;;;;;;18.00;3.10;;;;;;;16.39;77.17;99360.27;110464;1269;22374;-78
2023/10/14 01:08:49;;;;;;;19.00;3.20;;;;;;;16.35;77.29;99357.70;110485;1264;22150;-79
2023/10/14 01:11:23;;;;;;;15.70;3.60;;;;;;;16.30;77.44;99345.75;110483;1274;22242;-78
2023/10/14 01:14:00;;;;;;;11.10;2.50;;;;;;;16.24;77.48;99336.20;110484;1267;22319;-78
2023/10/14 01:16:32;;;;;;;15.00;2.70;;;;;;;16.18;77.77;99330.50;110486;1271;22161;-78
2023/10/14 01:19:03;;;;;;;13.50;2.20;;;;;;;16.12;77.84;99328.92;110491;1259;22703;-78
2023/10/14 01:21:38;;;;;;;13.10;2.80;;;;;;;16.08;78.09;99327.05;110461;1274;23230;-78
2023/10/14 01:24:17;;;;;;;12.00;2.20;;;;;;;16.04;78.20;99322.16;110470;1272;22271;-78
2023/10/14 01:27:00;;;;;;;9.40;1.80;;;;;;;16.00;78.30;99316.49;110504;1269;22137;-78
2023/10/14 01:29:39;;;;;;;11.50;2.20;;;;;;;15.97;78.41;99312.45;110455;1269;22231;-78
2023/10/14 01:32:39;;;;;;;11.60;2.40;;;;;;;15.92;78.52;99296.88;110465;1274;22185;-78
2023/10/14 01:35:24;;;;;;;14.80;2.50;;;;;;;15.86;78.58;99285.67;110277;1274;248161;-78
2023/10/14 01:37:56;;;;;;;12.50;2.80;;;;;;;15.81;78.57;99285.85;110482;1268;23107;-78
2023/10/14 01:40:35;;;;;;;15.10;2.70;;;;;;;15.75;78.52;99279.89;110465;1269;23010;-78
2023/10/14 01:43:06;;;;;;;8.50;2.10;;;;;;;15.67;78.51;99277.46;110561;1272;22209;-80
2023/10/14 01:45:48;;;;;;;10.90;2.10;;;;;;;15.62;78.75;99273.10;110543;1266;22483;-80
2023/10/14 01:48:21;;;;;;;13.20;2.50;;;;;;;15.56;78.82;99267.58;110447;1269;22155;-80
2023/10/14 01:50:55;;;;;;;12.50;2.10;;;;;;;15.51;78.95;99263.81;110542;1274;22193;-79
2023/10/14 01:53:28;;;;;;;9.50;2.10;;;;;;;15.46;78.99;99260.42;110515;1269;22216;-80
2023/10/14 01:56:00;;;;;;;13.30;2.90;;;;;;;15.41;79.24;99253.92;110561;1274;22545;-80
2023/10/14 01:58:33;;;;;;;14.00;2.90;;;;;;;15.37;79.41;99248.73;110549;1270;22185;-80
2023/10/14 02:01:11;;;;;;;16.80;2.40;;;;;;;15.34;79.39;99243.30;110542;1274;22174;-80
2023/10/14 02:03:43;;;;;;;14.00;2.20;;;;;;;15.32;79.54;99238.73;110558;1274;22178;-80
2023/10/14 02:06:18;;;;;;;16.80;2.40;;;;;;;15.31;79.59;99244.80;110574;1271;22289;-80
2023/10/14 02:08:51;;;;;;;14.30;2.40;;;;;;;15.31;79.75;99243.34;110526;1267;23000;-80
2023/10/14 02:11:23;;;;;;;16.80;3.50;;;;;;;15.35;79.38;99244.01;110591;1269;22140;-80
2023/10/14 02:13:54;;;;;;;9.80;2.10;;;;;;;15.41;79.48;99244.48;110522;1267;22301;-80
2023/10/14 02:16:25;;;;;;;11.20;1.80;;;;;;;15.46;79.44;99249.02;110555;1272;22169;-80
2023/10/14 02:19:09;;;;;;;8.80;2.20;;;;;;;15.52;79.38;99250.35;110628;1266;22145;-80
2023/10/14 02:21:46;;;;;;;11.50;2.20;;;;;;;15.58;79.34;99243.25;110790;1272;22115;-80
2023/10/14 02:24:18;;;;;;;9.80;2.00;;;;;;;15.62;79.32;99234.46;110797;1269;22332;-81
2023/10/14 02:26:49;;;;;;;10.50;2.50;;;;;;;15.65;79.24;99228.29;110602;1266;22133;-80
2023/10/14 02:29:23;;;;;;;12.20;3.00;;;;;;;15.69;79.20;99226.59;110603;1271;22291;-81
2023/10/14 02:31:54;;;;;;;12.30;1.80;;;;;;;15.73;79.26;99219.30;110622;1274;22332;-81
2023/10/14 02:34:25;;;;;;;10.60;2.10;;;;;;;15.77;79.29;99215.88;110579;1274;22351;-81
2023/10/14 02:37:01;;;;;;;14.00;2.80;;;;;;;15.82;79.29;99211.50;110598;1274;22322;-81
2023/10/14 02:39:32;;;;;;;16.50;3.00;;;;;;;15.87;79.29;99204.86;110594;1266;22200;-81
2023/10/14 02:42:07;;;;;;;13.60;2.30;;;;;;;15.91;79.36;99207.29;110573;1266;22300;-81
2023/10/14 02:44:46;;;;;;;13.30;2.50;;;;;;;15.96;79.32;99209.74;110573;1274;22893;-81
2023/10/14 02:47:19;;;;;;;10.70;2.20;;;;;;;16.01;79.38;99209.56;110598;1261;22326;-81
2023/10/14 02:49:55;;;;;;;9.50;2.30;;;;;;;16.05;79.31;99206.05;110552;1271;22304;-81
2023/10/14 02:52:29;;;;;;;16.70;2.70;;;;;;;16.09;79.39;99200.55;110553;1271;22763;-81
2023/10/14 02:57:47;;;;;;;14.80;2.50;;;;;;;16.15;79.27;99192.33;110490;1274;22324;-81
2023/10/14 03:00:23;;;;;;;9.70;2.00;;;;;;;16.19;79.28;99186.01;110468;1267;22357;-81
2023/10/14 03:02:57;;;;;;;10.80;2.20;;;;;;;16.23;79.25;99180.91;110454;1274;22292;-81
2023/10/14 03:05:36;;;;;;;14.50;2.70;;;;;;;16.24;79.22;99182.44;110519;1266;22313;-81
2023/10/14 03:08:10;;;;;;;12.60;2.30;;;;;;;16.27;79.26;99171.76;110439;1269;22147;-81
2023/10/14 03:10:42;;;;;;;17.60;2.90;;;;;;;16.27;79.22;99172.42;110488;1272;22160;-80
2023/10/14 03:13:14;;;;;;;14.80;2.90;;;;;;;16.29;79.21;99173.00;110542;1269;22350;-81
2023/10/14 03:15:47;;;;;;;13.90;2.70;;;;;;;16.32;79.21;99174.88;110489;1274;22596;-82
2023/10/14 03:18:18;;;;;;;16.00;2.30;;;;;;;16.36;79.28;99178.27;110462;1274;22397;-81
2023/10/14 03:21:00;;;;;;;14.00;2.40;;;;;;;16.39;79.17;99179.54;110480;1266;22348;-81
2023/10/14 03:23:32;;;;;;;14.50;2.70;;;;;;;16.44;79.23;99183.02;110503;1274;22130;-81
2023/10/14 03:26:12;;;;;;;13.20;2.40;;;;;;;16.48;79.21;99188.83;110484;1273;22866;-81
2023/10/14 03:28:44;;;;;;;13.00;2.40;;;;;;;16.52;79.09;99185.45;110489;1271;22292;-81
2023/10/14 03:31:17;;;;;;;18.80;2.30;;;;;;;16.54;79.05;99182.88;110500;1266;22224;-81
2023/10/14 03:33:48;;;;;;;9.90;2.60;;;;;;;16.54;79.04;99179.75;110491;1269;22349;-81
2023/10/14 03:36:22;;;;;;;16.80;3.20;;;;;;;16.57;79.00;99174.77;110484;1271;22182;-81
2023/10/14 03:38:57;;;;;;;14.20;2.80;;;;;;;16.60;78.94;99174.50;109083;1269;24125;-81
2023/10/14 03:41:37;;;;;;;16.10;2.80;;;;;;;16.63;78.89;99169.58;108656;1271;22526;-81
2023/10/14 03:44:11;;;;;;;15.10;2.90;;;;;;;16.67;78.90;99161.23;108784;1274;22578;-81
2023/10/14 03:46:47;;;;;;;16.20;2.70;;;;;;;16.70;78.73;99146.08;108627;1274;24764;-79
2023/10/14 03:49:22;;;;;;;13.70;2.40;;;;;;;16.73;78.74;99145.30;107572;1274;22920;-78
2023/10/14 03:51:56;;;;;;;14.70;2.90;;;;;;;16.75;78.61;99143.98;107419;1274;22551;-78
2023/10/14 03:54:28;;;;;;;15.00;3.00;;;;;;;16.77;78.60;99142.04;107555;1274;24332;-78
2023/10/14 03:57:03;;;;;;;18.20;3.00;;;;;;;16.79;78.51;99139.38;107538;1275;25390;-78
2023/10/14 03:59:36;;;;;;;13.50;2.80;;;;;;;16.79;78.55;99141.98;110446;1269;22999;-79
2023/10/14 04:02:08;;;;;;;18.00;3.30;;;;;;;16.78;78.55;99142.26;110451;1268;22172;-79
2023/10/14 04:04:42;;;;;;;17.10;3.50;;;;;;;16.77;78.52;99140.39;110460;1266;22320;-79
2023/10/14 04:07:16;;;;;;;15.80;3.20;;;;;;;16.77;78.62;99142.30;110481;1266;23067;-79
2023/10/14 04:09:51;;;;;;;14.00;2.90;;;;;;;16.77;78.57;99146.14;110452;1272;22323;-79
2023/10/14 04:12:36;;;;;;;22.20;3.70;;;;;;;16.77;78.62;99155.26;110475;1274;22404;-79
2023/10/14 04:15:34;;;;;;;16.00;3.60;;;;;;;16.75;78.52;99158.21;110463;1267;22898;-79
2023/10/14 04:18:12;;;;;;;14.60;3.10;;;;;;;16.73;78.59;99157.44;110470;1267;22288;-79
2023/10/14 04:20:47;;;;;;;16.10;4.80;;;;;;;16.72;78.73;99162.08;110469;1274;22403;-79
2023/10/14 04:23:28;;;;;;;15.30;3.40;;;;;;;16.71;78.65;99152.00;110473;1266;22238;-79
2023/10/14 04:26:03;;;;;;;20.20;3.40;;;;;;;16.70;78.81;99147.73;110411;1269;22157;-76
2023/10/14 04:28:39;;;;;;;13.40;3.40;;;;;;;16.68;78.87;99150.27;110450;1267;22327;-77
2023/10/14 04:31:16;;;;;;;17.60;3.70;;;;;;;16.67;78.83;99143.51;110431;1274;22145;-75
2023/10/14 04:33:52;;;;;;;19.50;3.70;;;;;;;16.65;78.91;99144.00;110438;1266;22418;-76
2023/10/14 04:39:15;;;;;;;19.30;4.20;;;;;;;16.60;79.17;99130.20;110382;1272;22223;-76
2023/10/14 04:42:03;;;;;;;17.10;4.00;;;;;;;16.55;79.06;99122.71;110456;1266;22340;-78
2023/10/14 04:44:45;;;;;;;16.00;3.70;;;;;;;16.52;79.20;99120.01;110453;1265;22358;-78
2023/10/14 04:47:19;;;;;;;18.20;3.70;;;;;;;16.50;79.17;99115.25;110441;1272;22316;-76
2023/10/14 04:49:52;;;;;;;15.20;4.50;;;;;;;16.48;79.19;99115.32;110446;1266;22350;-76
2023/10/14 04:52:26;;;;;;;17.30;4.40;;;;;;;16.48;79.32;99109.08;110451;1272;22219;-77
2023/10/14 04:55:08;;;;;;;17.90;4.10;;;;;;;16.47;79.30;99111.91;110457;1266;22341;-77
2023/10/14 04:57:40;;;;;;;16.50;4.00;;;;;;;16.48;79.32;99129.05;110467;1272;23019;-77
2023/10/14 05:00:30;;;;;;;16.70;4.10;;;;;;;16.47;79.32;99134.79;110423;1267;22157;-76
2023/10/14 05:03:03;;;;;;;21.00;3.70;;;;;;;16.46;79.37;99134.37;110433;1270;22963;-77
2023/10/14 05:05:35;;;;;;;18.40;3.50;;;;;;;16.45;79.44;99130.57;110458;1273;22227;-77
2023/10/14 05:08:12;;;;;;;16.60;4.00;;;;;;;16.44;79.67;99127.55;110497;1272;22199;-78
2023/10/14 05:10:43;;;;;;;18.20;4.80;;;;;;;16.42;79.64;99124.63;110445;1274;22251;-79
2023/10/14 05:13:14;;;;;;;15.90;4.20;;;;;;;16.36;79.78;99126.56;110430;1271;22366;-78
2023/10/14 05:15:53;;;;;;;14.10;3.40;;;;;;;16.34;79.90;99123.79;110481;1274;22391;-77
2023/10/14 05:18:28;;;;;;;14.30;3.30;;;;;;;16.32;80.09;99121.33;110489;1275;22314;-77
2023/10/14 05:21:12;;;;;;;17.10;4.40;;;;;;;16.30;80.04;99123.38;110417;1269;22256;-77
2023/10/14 05:23:46;;;;;;;18.80;3.80;;;;;;;16.30;80.15;99121.94;110451;1272;23110;-77
2023/10/14 05:26:27;;;;;;;18.00;3.80;;;;;;;16.30;80.17;99128.69;110418;1275;22321;-78
2023/10/14 05:29:11;;;;;;;19.00;6.10;;;;;;;16.28;80.33;99125.60;110425;1267;23135;-77
2023/10/14 05:31:41;;;;;;;24.60;6.60;;;;;;;16.27;80.46;99125.88;110436;1274;22324;-79
2023/10/14 05:34:13;;;;;;;22.30;5.70;;;;;;;16.26;80.42;99125.50;110414;1274;23097;-77
2023/10/14 05:36:45;;;;;;;19.60;4.80;;;;;;;16.27;80.52;99131.47;110451;1267;22216;-77
2023/10/14 05:39:17;;;;;;;14.30;4.50;;;;;;;16.27;80.65;99122.50;110457;1274;22385;-76
2023/10/14 05:41:49;;;;;;;16.10;3.70;;;;;;;16.26;80.49;99120.31;110458;1273;23218;-78
2023/10/14 05:44:22;;;;;;;16.70;3.10;;;;;;;16.26;79.90;99122.84;110458;1266;22826;-77
2023/10/14 05:46:52;;;;;;;15.10;3.70;;;;;;;16.30;79.34;99126.77;110440;1267;23270;-77
2023/10/14 05:49:24;;;;;;;13.20;3.00;;;;;;;16.37;78.96;99130.58;110415;1272;22412;-79
2023/10/14 05:51:55;;;;;;;10.50;2.30;;;;;;;16.44;78.80;99136.12;110461;1266;22258;-79
2023/10/14 05:54:26;;;;;;;15.10;2.50;;;;;;;16.52;78.47;99140.09;110449;1275;23018;-78
2023/10/14 05:56:56;;;;;;;12.60;2.60;;;;;;;16.62;78.35;99139.98;110456;1269;23007;-79
2023/10/14 05:59:27;;;;;;;14.60;2.30;;;;;;;16.73;77.87;99145.67;110458;1275;23164;-79
2023/10/14 06:01:57;;;;;;;14.60;2.30;;;;;;;16.85;77.76;99141.89;110427;1273;22203;-79
2023/10/14 06:04:28;;;;;;;11.70;2.40;;;;;;;16.98;77.02;99145.98;110420;1270;22345;-77
2023/10/14 06:07:00;;;;;;;13.50;2.90;;;;;;;17.11;76.68;99142.14;110435;1272;22174;-77
2023/10/14 06:09:32;;;;;;;12.70;2.70;;;;;;;17.23;76.42;99149.07;110416;1273;22322;-78
2023/10/14 06:12:05;;;;;;;14.00;2.20;;;;;;;17.34;75.96;99155.46;110405;1269;22310;-79
2023/10/14 06:14:36;;;;;;;12.80;2.20;;;;;;;17.42;75.66;99159.99;110413;1269;22161;-78
2023/10/14 06:17:08;;;;;;;12.90;2.20;;;;;;;17.51;75.07;99163.68;110492;1269;22330;-78
2023/10/14 06:19:40;;;;;;;14.30;2.50;;;;;;;17.60;74.87;99162.15;109824;1272;22554;-77
2023/10/14 06:22:13;;;;;;;12.10;2.40;;;;;;;17.67;74.61;99166.87;107734;1270;22553;-77
2023/10/14 06:24:44;;;;;;;11.10;2.30;;;;;;;17.72;74.51;99171.46;110411;1266;22297;-77
2023/10/14 06:27:21;;;;;;;14.20;2.20;;;;;;;17.76;74.19;99177.10;110383;1274;23175;-77
2023/10/14 06:29:55;;;;;;;11.60;2.40;;;;;;;17.80;74.03;99178.92;110434;1272;22332;-77
2023/10/14 06:32:25;;;;;;;14.40;2.30;;;;;;;17.82;74.14;99183.95;110474;1275;22248;-77
2023/10/14 06:35:02;;;;;;;12.70;2.90;;;;;;;17.83;74.17;99186.14;110474;1273;22845;-77
2023/10/14 06:37:41;;;;;;;12.10;2.20;;;;;;;17.84;74.05;99189.72;110452;1274;22181;-77
2023/10/14 06:40:13;;;;;;;11.20;2.50;;;;;;;17.84;73.99;99188.33;110454;1275;23070;-77
2023/10/14 06:42:45;;;;;;;14.90;2.40;;;;;;;17.85;74.15;99190.37;110402;1271;22236;-77
2023/10/14 06:45:17;;;;;;;13.70;2.50;;;;;;;17.84;74.28;99190.02;110408;1275;23365;-77
2023/10/14 06:47:51;;;;;;;15.90;2.30;;;;;;;17.84;74.27;99183.35;110375;1267;23046;-77
2023/10/14 06:50:24;;;;;;;12.30;2.60;;;;;;;17.83;74.25;99185.86;110324;1267;22352;-77
2023/10/14 06:52:58;;;;;;;11.90;2.00;;;;;;;17.83;74.41;99181.27;110325;1267;22274;-77
2023/10/14 06:55:37;;;;;;;12.20;3.30;;;;;;;17.81;74.21;99176.14;110447;1275;22258;-77
2023/10/14 06:58:08;;;;;;;14.50;2.90;;;;;;;17.79;74.41;99175.85;110442;1275;23222;-77
2023/10/14 07:00:40;;;;;;;11.00;2.70;;;;;;;17.77;74.27;99179.07;110379;1269;22312;-77
2023/10/14 07:03:13;;;;;;;9.10;2.50;;;;;;;17.76;74.06;99183.58;110435;1270;22650;-77
2023/10/14 07:05:48;;;;;;;12.40;3.00;;;;;;;17.75;74.11;99190.11;110403;1274;22330;-77
2023/10/14 07:08:21;;;;;;;13.80;3.00;;;;;;;17.74;74.03;99195.15;110461;1275;22161;-76
2023/10/14 07:10:52;;;;;;;16.80;3.20;;;;;;;17.73;73.79;99191.38;110437;1272;22356;-75
2023/10/14 07:13:24;;;;;;;11.70;2.60;;;;;;;17.75;73.88;99189.73;110480;1268;22606;-75
2023/10/14 07:16:04;;;;;;;14.30;3.00;;;;;;;17.75;73.86;99182.55;110429;1266;22359;-77
2023/10/14 07:18:36;;;;;;;13.20;2.40;;;;;;;17.75;73.72;99187.03;110446;1274;22150;-77
2023/10/14 07:21:12;;;;;;;10.00;3.10;;;;;;;17.75;73.77;99185.34;110476;1275;22208;-77
2023/10/14 07:23:44;;;;;;;13.30;2.40;;;;;;;17.75;73.82;99187.85;110430;1269;22369;-77
2023/10/14 07:26:16;;;;;;;15.00;3.00;;;;;;;17.74;73.86;99185.71;110431;1274;23002;-77
2023/10/14 07:28:51;;;;;;;12.20;2.50;;;;;;;17.74;74.09;99190.02;110436;1269;22289;-77
2023/10/14 07:31:23;;;;;;;10.70;2.90;;;;;;;17.72;73.88;99194.55;110423;1275;22359;-77
2023/10/14 07:33:59;;;;;;;12.70;3.10;;;;;;;17.73;74.05;99189.20;110446;1274;22317;-77
2023/10/14 07:36:30;;;;;;;13.00;3.10;;;;;;;17.72;74.14;99182.42;110490;1274;23050;-77
2023/10/14 07:39:04;;;;;;;16.30;3.60;;;;;;;17.73;74.26;99179.23;110444;1273;22215;-77
2023/10/14 07:41:36;;;;;;;15.70;3.10;;;;;;;17.74;74.35;99172.58;110363;1271;22169;-78
2023/10/14 07:44:09;;;;;;;16.70;3.60;;;;;;;17.76;74.44;99170.93;110414;1274;23385;-77
2023/10/14 07:46:42;;;;;;;18.60;3.20;;;;;;;17.78;74.39;99171.08;110405;1271;22331;-77
2023/10/14 07:49:14;;;;;;;19.40;2.80;;;;;;;17.81;74.37;99170.09;110465;1274;22167;-77
2023/10/14 07:51:46;;;;;;;9.50;2.90;;;;;;;17.86;74.42;99168.73;110431;1274;23029;-76
2023/10/14 07:54:17;;;;;;;13.60;3.30;;;;;;;17.90;74.29;99160.89;110451;1271;22960;-76
2023/10/14 07:56:47;;;;;;;17.90;3.60;;;;;;;17.95;74.31;99158.09;110481;1272;22726;-77
2023/10/14 07:59:19;;;;;;;18.00;3.40;;;;;;;17.99;74.15;99149.48;110444;1263;22932;-77
2023/10/14 08:01:50;;;;;;;13.10;3.70;;;;;;;18.03;74.00;99150.01;110441;1274;22907;-75
2023/10/14 08:04:23;;;;;;;13.10;3.20;;;;;;;18.06;73.94;99150.89;110415;1274;22148;-76
2023/10/14 08:06:54;;;;;;;16.50;3.30;;;;;;;18.10;74.08;99152.48;110438;1274;23384;-77
2023/10/14 08:09:25;;;;;;;11.60;2.50;;;;;;;18.14;73.86;99152.40;110438;1275;22206;-79
2023/10/14 08:11:56;;;;;;;11.40;2.60;;;;;;;18.20;73.99;99151.82;110359;1273;23515;-77
2023/10/14 08:14:30;;;;;;;19.60;3.20;;;;;;;18.25;73.74;99156.45;110418;1274;22152;-78
2023/10/14 08:17:01;;;;;;;18.60;2.80;;;;;;;18.31;73.61;99157.66;110449;1274;22887;-78
2023/10/14 08:19:32;;;;;;;14.50;2.80;;;;;;;18.34;73.22;99159.46;110382;1273;22426;-78
2023/10/14 08:22:03;;;;;;;11.00;2.80;;;;;;;18.39;73.46;99159.37;110444;1269;23048;-77
2023/10/14 08:24:33;;;;;;;17.40;3.10;;;;;;;18.42;73.40;99156.52;110441;1270;23413;-78
2023/10/14 08:27:04;;;;;;;11.60;2.40;;;;;;;18.45;73.20;99150.33;110382;1264;22299;-78
2023/10/14 08:29:35;;;;;;;12.40;3.10;;;;;;;18.47;73.05;99155.55;110422;1264;22938;-77
2023/10/14 08:32:06;;;;;;;10.60;2.70;;;;;;;18.53;72.99;99165.70;110449;1275;22210;-77
2023/10/14 08:34:36;;;;;;;16.30;3.80;;;;;;;18.58;73.17;99163.66;110397;1271;22322;-77
2023/10/14 08:37:08;;;;;;;10.80;3.10;;;;;;;18.63;73.19;99160.69;110435;1272;22284;-77
2023/10/14 08:39:40;;;;;;;12.30;2.80;;;;;;;18.68;73.12;99163.38;110393;1274;22819;-78
2023/10/14 08:42:11;;;;;;;16.40;3.90;;;;;;;18.72;73.14;99165.05;110476;1267;23091;-79
2023/10/14 08:44:45;;;;;;;13.50;3.30;;;;;;;18.76;73.26;99158.69;110440;1269;22190;-79
2023/10/14 08:47:16;;;;;;;12.60;3.00;;;;;;;18.79;72.97;99159.23;110424;1274;22775;-77
2023/10/14 08:49:48;;;;;;;13.30;3.80;;;;;;;18.82;72.90;99157.41;110403;1267;22168;-77
2023/10/14 08:52:21;;;;;;;15.70;3.10;;;;;;;18.86;72.84;99157.44;110139;1267;22269;-77
2023/10/14 08:54:52;;;;;;;13.00;2.80;;;;;;;18.91;72.74;99161.55;110395;1274;22203;-77
2023/10/14 08:57:23;;;;;;;14.50;3.30;;;;;;;18.96;72.67;99160.05;110398;1274;22214;-77
2023/10/14 08:59:55;;;;;;;15.60;3.80;;;;;;;19.00;72.70;99161.83;110395;1267;23229;-77
2023/10/14 09:02:26;;;;;;;17.70;4.00;;;;;;;19.04;72.67;99161.98;110440;1267;22245;-76
2023/10/14 09:04:59;;;;;;;15.10;3.10;;;;;;;19.11;72.67;99166.98;110363;1273;23039;-77
2023/10/14 09:07:31;;;;;;;13.80;3.30;;;;;;;19.17;72.60;99171.30;110405;1274;22365;-77
2023/10/14 09:10:02;;;;;;;14.30;3.20;;;;;;;19.23;72.69;99174.65;110384;1274;22195;-77
2023/10/14 09:12:33;;;;;;;13.30;3.50;;;;;;;19.29;72.66;99175.86;110416;1267;22299;-76
2023/10/14 09:15:04;;;;;;;11.30;3.00;;;;;;;19.36;72.64;99172.80;110411;1274;22221;-76
2023/10/14 09:17:36;;;;;;;11.30;2.40;;;;;;;19.41;72.70;99169.33;110389;1267;22812;-76
2023/10/14 09:20:08;;;;;;;15.30;3.30;;;;;;;19.48;72.66;99166.95;110407;1267;23312;-76
2023/10/14 09:22:38;;;;;;;13.70;2.40;;;;;;;19.53;71.94;99169.73;110409;1267;22416;-76
2023/10/14 09:25:14;;;;;;;11.50;2.50;;;;;;;19.60;71.56;99172.05;110397;1273;22191;-77
2023/10/14 09:27:49;;;;;;;9.50;1.90;;;;;;;19.68;70.60;99168.00;110412;1274;22981;-77
2023/10/14 09:30:20;;;;;;;9.60;2.10;;;;;;;19.78;69.59;99173.17;110373;1272;23195;-77
2023/10/14 09:32:52;;;;;;;11.80;2.50;;;;;;;19.87;68.83;99173.19;110401;1274;22421;-77
2023/10/14 09:35:29;;;;;;;14.30;2.70;;;;;;;19.97;67.94;99175.77;110431;1273;22155;-77
2023/10/14 09:38:00;;;;;;;13.90;2.10;;;;;;;20.05;67.90;99172.05;110410;1273;22385;-76
2023/10/14 09:40:32;;;;;;;10.20;2.00;;;;;;;20.10;68.06;99170.08;110365;1274;22195;-77
2023/10/14 09:43:05;;;;;;;13.50;2.50;;;;;;;20.16;67.73;99170.89;110381;1274;23275;-77
2023/10/14 09:45:38;;;;;;;9.00;2.00;;;;;;;20.22;66.98;99178.61;110426;1274;22175;-77
2023/10/14 09:48:10;;;;;;;14.70;2.40;;;;;;;20.25;66.83;99176.64;110437;1274;23884;-77
2023/10/14 09:50:41;;;;;;;10.50;2.10;;;;;;;20.29;66.86;99172.02;110405;1275;22391;-78
2023/10/14 09:53:14;;;;;;;15.10;2.30;;;;;;;20.32;66.26;99173.02;110387;1275;22859;-77
2023/10/14 09:55:56;;;;;;;11.60;1.90;;;;;;;20.39;66.08;99174.84;110331;1267;22387;-77
2023/10/14 09:58:30;;;;;;;14.40;2.80;;;;;;;20.56;65.87;99175.31;110364;1275;22369;-78
2023/10/14 10:01:03;;;;;;;10.40;1.80;;;;;;;20.70;65.73;99172.07;110361;1274;23140;-78
2023/10/14 10:03:38;;;;;;;12.70;2.30;;;;;;;20.85;65.08;99172.92;110445;1267;22166;-78
2023/10/14 10:06:35;;;;;;;14.60;2.30;;;;;;;20.99;64.33;99167.21;110394;1274;22233;-78
2023/10/14 10:09:35;;;;;;;9.10;1.90;;;;;;;21.11;64.04;99168.56;110334;1269;22290;-78
2023/10/14 10:12:10;;;;;;;11.20;2.00;;;;;;;21.25;63.41;99160.60;109871;1281;22370;-78
2023/10/14 10:14:42;;;;;;;12.10;2.70;;;;;;;21.34;63.43;99160.70;109890;1276;22356;-78
2023/10/14 10:17:16;;;;;;;12.10;2.00;;;;;;;21.43;63.09;99159.73;109887;1281;22223;-78
2023/10/14 10:20:13;;;;;;;11.20;2.30;;;;;;;21.55;62.51;99161.04;109888;1281;22961;-78
2023/10/14 10:22:50;;;;;;;14.30;2.30;;;;;;;21.69;62.15;99166.80;109634;1285;22316;-78
2023/10/14 10:25:23;;;;;;;10.40;1.90;;;;;;;21.83;62.21;99166.02;109602;1286;22253;-78
2023/10/14 10:27:56;;;;;;;9.60;1.90;;;;;;;21.91;60.60;99171.06;109573;1286;22721;-78
2023/10/14 10:30:28;;;;;;;12.40;2.30;;;;;;;21.94;60.38;99171.30;109551;1280;22393;-78
2023/10/14 10:33:13;;;;;;;11.60;2.10;;;;;;;21.94;59.94;99169.52;109588;1285;22367;-78
2023/10/14 10:35:57;;;;;;;7.90;2.20;;;;;;;21.93;60.21;99168.24;109614;1275;22331;-78
2023/10/14 10:38:32;;;;;;;11.80;1.90;;;;;;;21.92;60.34;99165.60;109501;1286;22296;-78
2023/10/14 10:41:25;;;;;;;12.70;2.10;;;;;;;21.91;60.13;99166.64;109561;1285;22729;-78
2023/10/14 10:44:02;;;;;;;10.80;2.20;;;;;;;21.88;59.30;99169.13;109552;1286;22424;-78
2023/10/14 10:46:41;;;;;;;10.10;2.10;;;;;;;21.84;59.11;99169.05;109521;1281;22221;-78
2023/10/14 10:49:16;;;;;;;11.90;2.20;;;;;;;21.79;59.13;99171.30;109656;1280;22332;-78
2023/10/14 10:52:12;;;;;;;9.40;2.00;;;;;;;21.74;59.24;99173.09;109916;1274;22199;-78
2023/10/14 10:54:44;;;;;;;8.50;1.70;;;;;;;21.67;58.76;99175.13;109904;1281;23153;-78
2023/10/14 10:57:15;;;;;;;17.40;3.00;;;;;;;21.60;58.77;99175.72;109868;1273;22321;-78
2023/10/14 10:59:46;;;;;;;15.30;3.20;;;;;;;21.55;59.21;99183.18;110297;1267;22981;-78
2023/10/14 11:02:19;;;;;;;13.30;2.80;;;;;;;21.49;59.47;99182.29;110411;1260;22145;-78
2023/10/14 11:04:51;;;;;;;12.80;2.50;;;;;;;21.42;59.52;99188.44;110409;1274;22292;-78
2023/10/14 11:07:23;;;;;;;15.00;2.90;;;;;;;21.36;59.54;99193.86;110371;1263;22179;-78
2023/10/14 11:09:54;;;;;;;14.50;2.20;;;;;;;21.29;59.38;99207.21;110382;1274;22277;-78
2023/10/14 11:12:24;;;;;;;15.00;2.60;;;;;;;21.23;59.45;99229.07;110394;1273;22344;-78
2023/10/14 11:14:58;;;;;;;11.50;2.00;;;;;;;21.15;59.45;99251.52;110398;1267;23348;-78
2023/10/14 11:17:29;;;;;;;17.70;2.40;;;;;;;21.00;59.50;99264.27;110419;1267;22336;-78
2023/10/14 11:20:05;;;;;;;15.40;3.00;;;;;;;20.79;60.08;99272.59;110409;1266;22245;-78
2023/10/14 11:22:41;;;;;;;14.70;1.80;;;;;;;20.57;60.13;99279.91;110431;1274;22181;-78
2023/10/14 11:25:13;;;;;;;11.50;1.60;;;;;;;20.32;60.84;99291.11;110378;1267;22313;-78
2023/10/14 11:27:44;;;;;;;8.60;1.80;;;;;;;20.10;61.45;99296.75;110400;1274;22182;-78
2023/10/14 11:30:17;;;;;;;10.50;1.70;;;;;;;19.92;62.56;99310.05;110429;1274;22633;-78
2023/10/14 11:32:50;;;;;;;11.70;2.10;;;;;;;19.70;63.88;99313.66;110549;1275;22944;-79
2023/10/14 11:35:23;;;;;;;10.00;1.80;;;;;;;19.49;64.94;99317.42;110389;1274;22214;-77
2023/10/14 11:37:55;;;;;;;8.30;1.80;;;;;;;19.29;65.57;99328.53;110408;1270;22323;-77
2023/10/14 11:40:35;;;;;;;12.30;1.80;;;;;;;19.14;66.44;99333.34;110261;1274;22247;-77
2023/10/14 11:43:11;;;;;;;16.00;2.30;;;;;;;18.96;67.56;99337.82;110458;1274;23072;-77
2023/10/14 11:45:43;;;;;;;8.70;2.10;;;;;;;18.80;68.14;99343.07;110451;1274;22160;-77
2023/10/14 11:48:25;;;;;;;7.70;1.50;;;;;;;18.71;68.86;99351.73;110399;1274;22297;-77
2023/10/14 11:50:58;;;;;;;9.50;1.70;;;;;;;18.60;69.52;99347.84;110417;1274;23042;-77
2023/10/14 11:53:32;;;;;;;8.80;1.40;;;;;;;18.53;70.13;99352.36;110366;1267;22363;-76
2023/10/14 11:56:04;;;;;;;11.60;2.70;;;;;;;18.46;71.07;99362.41;110456;1267;22234;-77